Francis, Mississippi
Current Conditions -  °F | °C
As of 9:55 AM on Friday 28 Nov 2014 (Local Time) from KRNV Reporting Station
Clear Clear  
Wind Chill: 36°   Ceiling: Unl
Heat Index: 43°   Visibility: 10mi
Dew Point: 34°   Wind: 13mph
Humidity: 72%   Direction: 170°S
Pressure: 30.41"   Gusts: NA
Location:  34.0609°N, 90.7985°W
Report Text: KRNV 281555Z AUTO 17011KT 10SM CLR 06/01 A3041 RMK AO2 T00600013
Loading
Personal Weather Stations






























Interactive Weather Map New forecast layout! Learn more

10-Day Weather Forecast

Advertisements
Track Severe Weather on mobile